Terminal Aerodrome Forecast
Issued by NWS

Home | Current Version | Previous Version | Text Only | Print | Product List | Glossary On
Versions: 1 2 3 4 5 6 7 8 9 10 11 12 13 14 15 16
000
FTUS46 KLOX 010700 AAA
TAFBUR
TAF AMD
KBUR 010722Z 0107/0206 13006KT 5SM BR OVC010
     FM011200 13006KT 4SM BR OVC008
     FM011600 VRB03KT 6SM HZ SKC
     FM012000 18009KT P6SM SKC
     FM020300 VRB03KT P6SM SKC=

USA.gov is the U.S. government's official web portal to all federal, state and local government web resources and services.